createdAt,value
2023-03-26T00:01:16.517Z,9.92
2023-03-26T00:03:47.333Z,9.89
2023-03-26T00:06:16.085Z,9.92
2023-03-26T00:08:45.217Z,9.93
2023-03-26T00:11:14.511Z,9.93
2023-03-26T00:13:43.816Z,9.80
2023-03-26T00:16:13.839Z,9.88
2023-03-26T00:18:42.671Z,9.92
2023-03-26T00:21:13.614Z,9.78
2023-03-26T00:23:40.386Z,9.86
2023-03-26T00:26:10.635Z,9.76
2023-03-26T00:28:41.661Z,9.83
2023-03-26T00:31:13.675Z,9.87
2023-03-26T00:33:41.481Z,9.85
2023-03-26T00:36:12.056Z,9.81
2023-03-26T00:38:39.448Z,9.88
2023-03-26T00:41:08.361Z,9.84
2023-03-26T00:43:36.207Z,9.95
2023-03-26T00:46:03.254Z,9.91
2023-03-26T00:48:43.952Z,9.85
2023-03-26T00:51:12.151Z,10.07
2023-03-26T00:53:39.096Z,9.97
2023-03-26T00:56:08.082Z,10.10
2023-03-26T00:58:35.069Z,10.09
2023-03-26T01:01:05.829Z,10.06
2023-03-26T01:03:35.090Z,10.08
2023-03-26T01:06:08.290Z,10.10
2023-03-26T01:08:46.731Z,10.07
2023-03-26T01:11:28.215Z,10.07
2023-03-26T01:13:57.709Z,9.93
2023-03-26T01:16:31.928Z,9.94
2023-03-26T01:18:59.026Z,9.86
2023-03-26T01:21:30.450Z,9.91
2023-03-26T01:24:05.261Z,9.92
2023-03-26T01:26:50.041Z,9.87
2023-03-26T01:29:39.557Z,9.79
2023-03-26T01:32:17.715Z,9.76
2023-03-26T01:35:06.467Z,9.78
2023-03-26T01:37:52.681Z,9.83
2023-03-26T01:40:26.821Z,9.78
2023-03-26T01:43:21.034Z,9.78
2023-03-26T01:45:49.430Z,9.69
2023-03-26T01:48:16.363Z,9.62
2023-03-26T01:50:43.029Z,9.54
2023-03-26T01:53:11.806Z,9.54
2023-03-26T01:55:54.015Z,9.47
2023-03-26T01:58:36.394Z,9.43
2023-03-26T02:01:36.804Z,9.24
2023-03-26T02:04:08.239Z,9.29
2023-03-26T02:07:02.167Z,9.23
2023-03-26T02:09:32.201Z,8.89
2023-03-26T02:12:00.242Z,9.00
2023-03-26T02:14:29.728Z,8.81
2023-03-26T02:16:57.301Z,8.63
2023-03-26T02:19:24.714Z,8.66
2023-03-26T02:21:51.628Z,8.67
2023-03-26T02:24:21.412Z,8.44
2023-03-26T02:26:48.072Z,8.53
2023-03-26T02:29:20.568Z,8.50
2023-03-26T02:31:51.256Z,8.38
2023-03-26T02:34:17.980Z,8.21
2023-03-26T02:36:44.720Z,8.26
2023-03-26T02:39:12.139Z,8.27
2023-03-26T02:41:39.329Z,8.25
2023-03-26T02:44:06.373Z,8.21
2023-03-26T02:46:33.803Z,8.11
2023-03-26T02:49:00.717Z,8.15
2023-03-26T02:51:27.492Z,8.18
2023-03-26T02:53:54.980Z,8.14
2023-03-26T02:56:21.970Z,8.16
2023-03-26T02:58:48.662Z,8.14
2023-03-26T03:01:18.471Z,8.15
2023-03-26T03:03:47.462Z,8.03
2023-03-26T03:06:17.241Z,8.13
2023-03-26T03:08:46.118Z,8.14
2023-03-26T03:11:18.090Z,8.11
2023-03-26T03:13:45.816Z,8.10
2023-03-26T03:16:12.517Z,8.10
2023-03-26T03:18:39.228Z,7.99
2023-03-26T03:21:06.346Z,8.02
2023-03-26T03:23:32.988Z,7.91
2023-03-26T03:25:59.707Z,7.94
2023-03-26T03:28:26.905Z,7.94
2023-03-26T03:30:53.718Z,7.81
2023-03-26T03:33:20.962Z,7.75
2023-03-26T03:35:49.596Z,7.87
2023-03-26T03:38:19.678Z,7.79
2023-03-26T03:40:46.441Z,7.71
2023-03-26T03:43:13.128Z,7.67
2023-03-26T03:45:39.983Z,7.61
2023-03-26T03:48:06.684Z,7.68
2023-03-26T03:50:35.640Z,7.59
2023-03-26T03:53:03.245Z,7.52
2023-03-26T03:55:30.124Z,7.58
2023-03-26T03:57:58.402Z,7.58
2023-03-26T04:00:25.193Z,7.65
2023-03-26T04:02:54.494Z,7.59
2023-03-26T04:05:21.749Z,7.59
2023-03-26T04:07:48.468Z,7.66
2023-03-26T04:10:16.147Z,7.65
2023-03-26T04:12:42.788Z,7.65
2023-03-26T04:15:09.687Z,7.55
2023-03-26T04:17:42.980Z,7.74
2023-03-26T04:20:14.833Z,7.73
2023-03-26T04:22:45.737Z,7.83
2023-03-26T04:25:13.260Z,7.75
2023-03-26T04:27:41.853Z,7.87
2023-03-26T04:30:12.836Z,7.92
2023-03-26T04:32:40.536Z,7.90
2023-03-26T04:35:07.602Z,7.87
2023-03-26T04:37:39.688Z,7.95
2023-03-26T04:40:10.320Z,8.00
2023-03-26T04:42:41.854Z,8.14
2023-03-26T04:45:10.949Z,7.98
2023-03-26T04:47:39.644Z,8.13
2023-03-26T04:50:08.216Z,8.06
2023-03-26T04:52:35.177Z,8.06
2023-03-26T04:55:01.989Z,8.18
2023-03-26T04:57:50.839Z,8.02
2023-03-26T05:00:19.690Z,8.01
2023-03-26T05:02:50.175Z,8.03
2023-03-26T05:05:17.811Z,7.98
2023-03-26T05:07:44.489Z,7.90
2023-03-26T05:10:15.348Z,7.97
2023-03-26T05:12:42.199Z,7.87
2023-03-26T05:15:10.893Z,7.98
2023-03-26T05:17:41.742Z,8.14
2023-03-26T05:20:30.282Z,8.01
2023-03-26T05:22:57.354Z,7.78
2023-03-26T05:25:24.171Z,7.80
2023-03-26T05:27:50.979Z,7.98
2023-03-26T05:30:19.758Z,7.77
2023-03-26T05:32:49.038Z,7.60
2023-03-26T05:35:19.484Z,7.60
2023-03-26T05:37:46.934Z,7.59
2023-03-26T05:40:17.101Z,7.73
2023-03-26T05:42:44.509Z,7.97
2023-03-26T05:45:12.638Z,8.16
2023-03-26T05:47:39.386Z,8.21
2023-03-26T05:50:07.633Z,7.88
2023-03-26T05:52:34.687Z,7.99
2023-03-26T05:55:01.403Z,7.93
2023-03-26T05:57:30.599Z,8.09
2023-03-26T05:59:57.242Z,7.78
2023-03-26T06:02:24.273Z,8.11
2023-03-26T06:04:51.129Z,8.16
2023-03-26T06:07:18.819Z,8.15
2023-03-26T06:09:45.793Z,8.06
2023-03-26T06:12:13.808Z,8.01
2023-03-26T06:14:42.888Z,8.35
2023-03-26T06:17:10.315Z,8.07
2023-03-26T06:19:37.120Z,7.80
2023-03-26T06:22:04.436Z,7.91
2023-03-26T06:24:31.390Z,8.06
2023-03-26T06:26:58.063Z,8.08
2023-03-26T06:29:25.320Z,8.27
2023-03-26T06:31:51.925Z,8.36
2023-03-26T06:34:18.672Z,8.21
2023-03-26T06:36:45.322Z,8.53
2023-03-26T06:39:11.997Z,8.31
2023-03-26T06:41:38.665Z,8.40
2023-03-26T06:44:05.336Z,8.41
2023-03-26T06:46:32.067Z,8.35
2023-03-26T06:48:59.681Z,8.54
2023-03-26T06:51:26.446Z,8.60
2023-03-26T06:53:53.284Z,8.78
2023-03-26T06:56:20.009Z,9.13
2023-03-26T06:58:46.651Z,9.27
2023-03-26T07:01:13.525Z,9.24
2023-03-26T07:03:40.278Z,9.41
2023-03-26T07:06:07.554Z,9.50
2023-03-26T07:08:34.333Z,9.59
2023-03-26T07:11:00.975Z,9.39
2023-03-26T07:13:27.691Z,9.34
2023-03-26T07:15:55.553Z,9.50
2023-03-26T07:18:22.374Z,9.56
2023-03-26T07:20:49.335Z,9.38
2023-03-26T07:23:20.182Z,9.56
2023-03-26T07:25:48.405Z,9.69
2023-03-26T07:28:27.051Z,9.58
2023-03-26T07:31:11.820Z,9.72
2023-03-26T07:33:38.504Z,9.58
2023-03-26T07:36:36.693Z,9.76
2023-03-26T07:39:28.030Z,9.79
2023-03-26T07:42:06.053Z,9.54
2023-03-26T07:44:36.010Z,9.38
2023-03-26T07:47:11.281Z,9.55
2023-03-26T07:49:38.388Z,9.61
2023-03-26T07:52:05.352Z,9.74
2023-03-26T07:54:32.278Z,9.56
2023-03-26T07:57:05.625Z,10.03
2023-03-26T07:59:37.506Z,9.95
2023-03-26T08:02:22.146Z,10.05
2023-03-26T08:05:05.318Z,10.21
2023-03-26T08:07:35.163Z,10.39
2023-03-26T08:10:20.819Z,10.16
2023-03-26T08:12:47.477Z,10.46
2023-03-26T08:15:50.233Z,10.35
2023-03-26T08:18:28.032Z,10.80
2023-03-26T08:21:08.147Z,10.56
2023-03-26T08:23:53.742Z,10.91
2023-03-26T08:26:32.467Z,11.06
2023-03-26T08:29:09.856Z,10.96
2023-03-26T08:31:39.408Z,10.86
2023-03-26T08:34:06.898Z,10.74
2023-03-26T08:36:33.752Z,10.73
2023-03-26T08:39:00.382Z,10.97
2023-03-26T08:41:45.596Z,10.91
2023-03-26T08:44:49.681Z,10.82
2023-03-26T08:47:19.525Z,10.93
2023-03-26T08:50:21.859Z,10.76
2023-03-26T08:53:16.123Z,10.96
2023-03-26T08:55:56.823Z,11.21
2023-03-26T08:58:23.488Z,11.39
2023-03-26T09:00:53.594Z,11.13
2023-03-26T09:03:27.970Z,11.50
2023-03-26T09:06:29.544Z,11.41
2023-03-26T09:09:19.083Z,11.09
2023-03-26T09:12:11.730Z,11.21
2023-03-26T09:15:16.345Z,11.21
2023-03-26T09:17:46.181Z,11.27
2023-03-26T09:20:49.974Z,11.54
2023-03-26T09:23:40.321Z,11.22
2023-03-26T09:26:19.107Z,11.73
2023-03-26T09:29:00.486Z,11.12
2023-03-26T09:31:39.332Z,11.52
2023-03-26T09:34:18.238Z,11.94
2023-03-26T09:37:14.312Z,11.92
2023-03-26T09:39:49.646Z,11.60
2023-03-26T09:42:48.572Z,11.68
2023-03-26T09:45:38.802Z,11.43
2023-03-26T09:48:47.628Z,11.20
2023-03-26T09:51:27.732Z,11.06
2023-03-26T09:54:31.571Z,10.68
2023-03-26T09:57:17.154Z,10.74
2023-03-26T10:00:03.584Z,11.09
2023-03-26T10:03:07.637Z,11.11
2023-03-26T10:05:58.666Z,11.18
2023-03-26T10:08:41.568Z,11.23
2023-03-26T10:11:27.683Z,11.06
2023-03-26T10:14:23.316Z,11.28
2023-03-26T10:17:07.054Z,11.37
2023-03-26T10:20:04.961Z,11.21
2023-03-26T10:22:36.036Z,11.51
2023-03-26T10:25:41.062Z,11.23
2023-03-26T10:28:41.365Z,10.96
2023-03-26T10:31:23.836Z,10.85
2023-03-26T10:34:28.611Z,10.73
2023-03-26T10:37:17.912Z,10.48
2023-03-26T10:39:59.249Z,10.57
2023-03-26T10:42:49.734Z,10.82
2023-03-26T10:45:55.631Z,11.10
2023-03-26T10:49:01.074Z,11.39
2023-03-26T10:51:36.450Z,10.85
2023-03-26T10:54:21.448Z,10.97
2023-03-26T10:56:50.480Z,11.04
2023-03-26T10:59:18.279Z,11.40
2023-03-26T11:02:18.728Z,11.32
2023-03-26T11:04:54.631Z,11.77
2023-03-26T11:07:47.127Z,11.95
2023-03-26T11:10:35.656Z,11.96
2023-03-26T11:13:13.062Z,12.53
2023-03-26T11:15:45.238Z,12.02
2023-03-26T11:18:19.337Z,12.56
2023-03-26T11:21:19.315Z,12.28
2023-03-26T11:24:06.376Z,12.37
2023-03-26T11:26:45.153Z,12.05
2023-03-26T11:29:31.356Z,11.77
2023-03-26T11:32:06.502Z,11.58
2023-03-26T11:35:06.164Z,11.68
2023-03-26T11:37:35.547Z,11.95
2023-03-26T11:40:11.578Z,12.11
2023-03-26T11:42:38.349Z,11.90
2023-03-26T11:45:07.281Z,11.89
2023-03-26T11:47:46.090Z,12.00
2023-03-26T11:50:28.170Z,12.43
2023-03-26T11:52:59.539Z,12.54
2023-03-26T11:55:27.686Z,12.43
2023-03-26T11:57:56.079Z,12.43
2023-03-26T12:00:27.691Z,12.27
2023-03-26T12:02:59.285Z,12.25
2023-03-26T12:05:31.415Z,12.37
2023-03-26T12:08:18.805Z,12.42
2023-03-26T12:10:51.650Z,12.37
2023-03-26T12:13:21.512Z,12.36
2023-03-26T12:15:48.274Z,12.31
2023-03-26T12:18:32.245Z,11.87
2023-03-26T12:21:28.776Z,12.73
2023-03-26T12:24:29.881Z,11.82
2023-03-26T12:27:32.676Z,11.72
2023-03-26T12:30:59.949Z,12.29
2023-03-26T12:36:57.560Z,11.63
2023-03-26T12:40:09.079Z,10.89
2023-03-26T12:44:49.857Z,9.73
2023-03-26T12:47:26.450Z,10.01
2023-03-26T12:48:41.242Z,10.39
2023-03-26T12:51:33.400Z,10.88
2023-03-26T12:54:24.760Z,11.29
2023-03-26T12:57:21.892Z,11.55
2023-03-26T13:00:24.724Z,12.02
2023-03-26T13:03:03.403Z,12.22
2023-03-26T13:05:52.569Z,12.27
2023-03-26T13:08:49.001Z,12.07
2023-03-26T13:11:45.438Z,12.08
2023-03-26T13:14:43.499Z,12.19
2023-03-26T13:17:37.480Z,12.34
2023-03-26T13:20:46.282Z,12.53
2023-03-26T13:23:24.158Z,12.15
2023-03-26T13:26:18.382Z,12.64
2023-03-26T13:28:47.746Z,12.19
2023-03-26T13:31:17.230Z,12.37
2023-03-26T13:34:27.160Z,12.51
2023-03-26T13:40:58.516Z,12.93
2023-03-26T13:46:28.496Z,12.67
2023-03-26T13:46:59.556Z,12.37
2023-03-26T13:49:50.521Z,12.04
2023-03-26T13:52:55.695Z,12.79
2023-03-26T13:55:37.625Z,12.09
2023-03-26T13:58:38.977Z,12.25
2023-03-26T14:01:12.700Z,12.36
2023-03-26T14:04:13.132Z,12.49
2023-03-26T14:06:42.560Z,12.35
2023-03-26T14:09:59.140Z,12.33
2023-03-26T14:12:49.018Z,12.51
2023-03-26T14:15:37.354Z,12.14
2023-03-26T14:18:20.107Z,12.02
2023-03-26T14:20:47.674Z,11.94
2023-03-26T14:23:28.569Z,11.77
2023-03-26T14:26:13.820Z,11.65
2023-03-26T14:28:43.441Z,11.52
2023-03-26T14:31:23.715Z,11.08
2023-03-26T14:34:04.895Z,10.99
2023-03-26T14:36:46.496Z,11.03
2023-03-26T14:39:29.032Z,10.85
2023-03-26T14:42:03.110Z,10.56
2023-03-26T14:44:49.073Z,10.46
2023-03-26T14:47:20.899Z,10.52
2023-03-26T14:50:26.693Z,10.52
2023-03-26T14:53:01.235Z,10.51
2023-03-26T14:55:50.674Z,10.60
2023-03-26T14:58:38.822Z,10.89
2023-03-26T15:01:17.951Z,10.81
2023-03-26T15:04:20.000Z,10.94
2023-03-26T15:06:49.332Z,11.02
2023-03-26T15:09:24.967Z,11.12
2023-03-26T15:12:17.780Z,11.19
2023-03-26T15:15:30.478Z,11.23
2023-03-26T15:18:00.453Z,11.04
2023-03-26T15:20:33.612Z,10.88
2023-03-26T15:23:47.357Z,10.84
2023-03-26T15:26:51.420Z,10.79
2023-03-26T15:29:21.700Z,10.69
2023-03-26T15:32:14.094Z,10.67
2023-03-26T15:34:58.978Z,10.70
2023-03-26T15:37:31.515Z,10.66
2023-03-26T15:40:30.271Z,10.62
2023-03-26T15:43:16.309Z,10.47
2023-03-26T15:46:22.646Z,10.46
2023-03-26T15:48:57.887Z,10.39
2023-03-26T15:51:30.780Z,10.41
2023-03-26T15:54:02.102Z,10.33
2023-03-26T15:57:01.471Z,10.25
2023-03-26T15:59:31.687Z,10.18
2023-03-26T16:02:30.214Z,10.03
2023-03-26T16:05:03.341Z,10.03
2023-03-26T16:07:39.247Z,10.05
2023-03-26T16:10:28.085Z,10.05
2023-03-26T16:13:22.470Z,10.02
2023-03-26T16:15:56.401Z,9.97
2023-03-26T16:18:32.366Z,9.88
2023-03-26T16:21:32.788Z,9.89
2023-03-26T16:24:02.759Z,9.82
2023-03-26T16:26:44.770Z,9.83
2023-03-26T16:29:14.653Z,9.75
2023-03-26T16:32:07.650Z,9.63
2023-03-26T16:34:42.233Z,9.66
2023-03-26T16:37:35.712Z,9.68
2023-03-26T16:40:30.327Z,9.61
2023-03-26T16:43:32.269Z,9.54
2023-03-26T16:46:29.960Z,9.38
2023-03-26T16:49:18.781Z,9.32
2023-03-26T16:52:21.103Z,9.34
2023-03-26T16:54:57.406Z,9.39
2023-03-26T16:57:30.540Z,9.51
2023-03-26T17:00:13.852Z,9.56
2023-03-26T17:03:17.924Z,9.55
2023-03-26T17:05:58.770Z,9.50
2023-03-26T17:09:18.754Z,9.50
2023-03-26T17:12:08.139Z,9.22
2023-03-26T17:14:51.897Z,9.43
2023-03-26T17:17:27.677Z,9.43
2023-03-26T17:20:23.651Z,9.28
2023-03-26T17:23:24.554Z,9.26
2023-03-26T17:30:07.621Z,9.08
2023-03-26T17:36:15.087Z,9.01
2023-03-26T17:38:47.684Z,8.93
2023-03-26T17:41:35.644Z,8.58
2023-03-26T17:44:24.492Z,8.79
2023-03-26T17:54:47.491Z,7.81
2023-03-26T18:01:03.857Z,8.37
2023-03-26T18:03:34.680Z,8.00
2023-03-26T18:06:48.756Z,7.69
2023-03-26T18:10:05.622Z,8.14
2023-03-26T18:12:43.357Z,8.28
2023-03-26T18:15:40.387Z,8.28
2023-03-26T18:18:20.723Z,8.24
2023-03-26T18:20:49.285Z,8.06
2023-03-26T18:23:25.958Z,7.86
2023-03-26T18:25:59.492Z,7.95
2023-03-26T18:28:31.493Z,7.95
2023-03-26T18:31:08.455Z,8.07
2023-03-26T18:33:49.524Z,8.08
2023-03-26T18:36:18.735Z,7.35
2023-03-26T18:38:46.891Z,7.95
2023-03-26T18:41:30.829Z,7.95
2023-03-26T18:44:02.746Z,7.72
2023-03-26T18:46:29.484Z,7.75
2023-03-26T18:48:57.051Z,7.78
2023-03-26T18:51:26.145Z,7.76
2023-03-26T18:53:56.365Z,7.79
2023-03-26T18:56:26.140Z,7.77
2023-03-26T18:58:52.923Z,7.51
2023-03-26T19:01:25.943Z,7.48
2023-03-26T19:03:53.866Z,7.55
2023-03-26T19:06:21.068Z,7.45
2023-03-26T19:08:48.198Z,7.46
2023-03-26T19:11:17.020Z,7.60
2023-03-26T19:13:44.058Z,7.52
2023-03-26T19:16:21.298Z,7.55
2023-03-26T19:18:48.575Z,7.44
2023-03-26T19:21:16.143Z,7.22
2023-03-26T19:23:42.936Z,7.31
2023-03-26T19:26:10.535Z,7.24
2023-03-26T19:28:50.934Z,7.16
2023-03-26T19:31:27.246Z,6.99
2023-03-26T19:33:58.054Z,6.83
2023-03-26T19:36:29.727Z,6.87
2023-03-26T19:38:59.106Z,6.86
2023-03-26T19:41:34.581Z,6.73
2023-03-26T19:44:03.822Z,6.68
2023-03-26T19:46:33.682Z,6.70
2023-03-26T19:49:05.718Z,6.62
2023-03-26T19:51:34.620Z,6.67
2023-03-26T19:54:04.535Z,6.82
2023-03-26T19:56:39.496Z,6.45
2023-03-26T19:59:11.500Z,6.84
2023-03-26T20:01:38.331Z,6.41
2023-03-26T20:04:06.665Z,7.15
2023-03-26T20:09:25.649Z,7.02
2023-03-26T20:11:56.768Z,6.91
2023-03-26T20:14:30.919Z,6.86
2023-03-26T20:17:04.885Z,6.81
2023-03-26T20:19:41.962Z,6.41
2023-03-26T20:22:22.535Z,6.13
2023-03-26T20:24:51.413Z,6.04
2023-03-26T20:27:26.248Z,6.11
2023-03-26T20:33:12.416Z,6.17
2023-03-26T20:35:35.896Z,6.08
2023-03-26T20:38:17.041Z,6.06
2023-03-26T20:40:54.883Z,6.17
2023-03-26T20:43:29.331Z,6.47
2023-03-26T20:45:59.392Z,6.13
2023-03-26T20:48:56.451Z,6.03
2023-03-26T20:51:31.616Z,6.14
2023-03-26T20:54:37.960Z,6.36
2023-03-26T20:57:17.550Z,6.37
2023-03-26T20:59:47.967Z,6.26
2023-03-26T21:02:14.684Z,5.91
2023-03-26T21:04:41.650Z,5.97
2023-03-26T21:07:17.694Z,6.26
2023-03-26T21:09:47.411Z,5.95
2023-03-26T21:12:23.550Z,6.14
2023-03-26T21:14:51.168Z,6.22
2023-03-26T21:17:23.237Z,6.05
2023-03-26T21:19:58.873Z,6.01
2023-03-26T21:22:56.456Z,6.22
2023-03-26T21:26:22.624Z,6.18
2023-03-26T21:28:49.953Z,6.06
2023-03-26T21:31:21.076Z,6.15
2023-03-26T21:33:49.513Z,6.14
2023-03-26T21:36:18.473Z,6.01
2023-03-26T21:38:46.054Z,5.91
2023-03-26T21:41:24.854Z,6.10
2023-03-26T21:43:51.876Z,6.08
2023-03-26T21:46:19.075Z,5.84
2023-03-26T21:48:45.975Z,6.04
2023-03-26T21:51:14.858Z,6.03
2023-03-26T21:53:42.594Z,6.03
2023-03-26T21:56:47.666Z,5.95
2023-03-26T21:59:51.535Z,5.89
2023-03-26T22:02:30.706Z,5.77
2023-03-26T22:05:19.206Z,5.72
2023-03-26T22:08:01.948Z,5.75
2023-03-26T22:10:29.484Z,5.63
2023-03-26T22:12:56.138Z,5.32
2023-03-26T22:15:23.983Z,5.57
2023-03-26T22:17:54.191Z,5.46
2023-03-26T22:20:24.463Z,5.57
2023-03-26T22:22:53.265Z,5.55
2023-03-26T22:25:21.219Z,5.51
2023-03-26T22:27:48.906Z,5.48
2023-03-26T22:30:16.466Z,5.52
2023-03-26T22:32:45.968Z,5.54
2023-03-26T22:35:13.119Z,5.54
2023-03-26T22:37:40.548Z,5.55
2023-03-26T22:40:08.850Z,5.46
2023-03-26T22:42:36.188Z,5.46
2023-03-26T22:45:04.267Z,5.38
2023-03-26T22:47:33.814Z,5.43
2023-03-26T22:50:00.854Z,5.36
2023-03-26T22:52:28.193Z,5.29
2023-03-26T22:54:54.884Z,5.32
2023-03-26T22:57:24.445Z,5.25
2023-03-26T22:59:52.068Z,5.29
2023-03-26T23:02:19.175Z,5.29
2023-03-26T23:04:46.481Z,5.10
2023-03-26T23:07:13.321Z,5.18
2023-03-26T23:09:39.985Z,5.20
2023-03-26T23:12:06.784Z,5.04
2023-03-26T23:14:33.432Z,5.14
2023-03-26T23:17:01.535Z,5.23
2023-03-26T23:19:30.202Z,5.16
2023-03-26T23:21:57.594Z,5.14
2023-03-26T23:24:26.633Z,5.15
2023-03-26T23:26:53.468Z,4.98
2023-03-26T23:29:20.369Z,5.04
2023-03-26T23:31:47.433Z,4.92
2023-03-26T23:34:15.381Z,4.91
2023-03-26T23:36:42.450Z,4.86
2023-03-26T23:39:09.341Z,4.92
2023-03-26T23:41:36.906Z,4.88
2023-03-26T23:44:04.228Z,4.90
2023-03-26T23:46:33.572Z,4.86
2023-03-26T23:49:02.458Z,4.78
2023-03-26T23:51:30.402Z,4.71
2023-03-26T23:53:57.281Z,4.79
2023-03-26T23:56:24.158Z,4.81
2023-03-26T23:58:50.925Z,4.77
